Time;durP1;ratioP1;P1;durP2;ratioP2;P2;SDS_P1;SDS_P2;PMS_P1;PMS_P2;Temp;Humidity;BMP_temperature;BMP_pressure;BME280_temperature;BME280_humidity;BME280_pressure;Samples;Min_cycle;Max_cycle;Signal;HPM_P1;HPM_P2
2023/03/01 00:01:03;;;;;;;;;;;;;;;0.32;69.09;100151.78;5044051;28;20007;-83
2023/03/01 00:03:28;;;;;;;;;;;;;;;0.35;68.84;100154.06;5048014;28;19916;-83
2023/03/01 00:05:54;;;;;;;;;;;;;;;0.42;68.42;100146.41;5067424;28;19931;-83
2023/03/01 00:08:19;;;;;;;;;;;;;;;0.44;68.23;100145.28;5058541;28;19927;-83
2023/03/01 00:10:44;;;;;;;;;;;;;;;0.32;68.50;100136.03;5050377;28;19929;-82
2023/03/01 00:13:09;;;;;;;;;;;;;;;0.35;68.92;100134.91;5058923;28;19935;-84
2023/03/01 00:15:37;;;;;;;;;;;;;;;0.32;68.74;100137.81;5049200;28;19921;-84
2023/03/01 00:18:03;;;;;;;;;;;;;;;0.32;68.31;100141.28;5045509;28;20372;-84
2023/03/01 00:20:28;;;;;;;;;;;;;;;0.15;69.28;100147.34;5046848;28;19974;-84
2023/03/01 00:22:53;;;;;;;;;;;;;;;0.34;68.89;100141.13;5067263;28;19928;-84
2023/03/01 00:25:18;;;;;;;;;;;;;;;-0.11;69.26;100138.56;5040034;28;19980;-82
2023/03/01 00:27:43;;;;;;;;;;;;;;;0.16;68.95;100141.13;5052257;28;20412;-83
2023/03/01 00:30:09;;;;;;;;;;;;;;;0.14;69.09;100142.25;5054378;28;19921;-83
2023/03/01 00:32:34;;;;;;;;;;;;;;;0.17;69.08;100144.56;5066324;28;20015;-83
2023/03/01 00:35:00;;;;;;;;;;;;;;;0.27;68.78;100145.31;5045915;28;19929;-83
2023/03/01 00:37:25;;;;;;;;;;;;;;;0.25;68.73;100142.84;5047042;28;19924;-83
2023/03/01 00:39:50;;;;;;;;;;;;;;;-0.12;69.80;100150.03;5051386;28;20328;-83
2023/03/01 00:42:16;;;;;;;;;;;;;;;-0.20;69.93;100150.75;5034260;28;19935;-82
2023/03/01 00:44:41;;;;;;;;;;;;;;;0.12;68.67;100152.06;5067596;28;19975;-84
2023/03/01 00:47:07;;;;;;;;;;;;;;;0.19;68.42;100147.88;5050330;28;19939;-84
2023/03/01 00:49:32;;;;;;;;;;;;;;;-0.77;69.20;100158.94;5043807;28;19932;-82
2023/03/01 00:51:57;;;;;;;;;;;;;;;-0.30;69.48;100154.41;5046255;28;21436;-83
2023/03/01 00:54:23;;;;;;;;;;;;;;;-0.01;69.54;100152.44;5046153;28;19962;-82
2023/03/01 00:56:48;;;;;;;;;;;;;;;-0.03;69.26;100152.59;5045386;28;19935;-84
2023/03/01 00:59:13;;;;;;;;;;;;;;;0.01;69.36;100161.00;5048587;28;19928;-84
2023/03/01 01:01:39;;;;;;;;;;;;;;;0.03;69.18;100153.78;5029210;28;19966;-84
2023/03/01 01:04:05;;;;;;;;;;;;;;;0.06;69.02;100150.88;5044333;28;19920;-84
2023/03/01 01:06:32;;;;;;;;;;;;;;;-0.04;68.80;100147.47;5064476;28;20070;-83
2023/03/01 01:08:57;;;;;;;;;;;;;;;0.03;68.66;100145.09;5047790;28;20081;-84
2023/03/01 01:11:24;;;;;;;;;;;;;;;-0.02;68.92;100132.41;5051542;28;20337;-82
2023/03/01 01:13:49;;;;;;;;;;;;;;;0.01;68.37;100126.88;5065916;28;20403;-82
2023/03/01 01:16:15;;;;;;;;;;;;;;;-0.40;67.60;100119.56;5050910;28;19970;-83
2023/03/01 01:18:41;;;;;;;;;;;;;;;-0.50;69.99;100118.81;5064138;28;19925;-83
2023/03/01 01:21:07;;;;;;;;;;;;;;;-0.69;70.22;100124.13;5046789;28;19958;-83
2023/03/01 01:23:32;;;;;;;;;;;;;;;-0.74;70.83;100115.91;5062182;28;19921;-83
2023/03/01 01:26:03;;;;;;;;;;;;;;;-0.53;70.44;100121.72;5053790;28;19946;-82
2023/03/01 01:28:28;;;;;;;;;;;;;;;-1.83;71.72;100119.06;5071289;28;19917;-82
2023/03/01 01:30:53;;;;;;;;;;;;;;;-0.70;71.12;100120.72;5053667;28;20552;-82
2023/03/01 01:33:18;;;;;;;;;;;;;;;-0.64;70.54;100114.88;5050924;28;20330;-84
2023/03/01 01:35:45;;;;;;;;;;;;;;;-1.40;70.26;100120.41;5060380;28;20875;-82
2023/03/01 01:38:10;;;;;;;;;;;;;;;-1.09;71.92;100116.59;5047066;28;19927;-83
2023/03/01 01:40:42;;;;;;;;;;;;;;;-1.91;72.19;100120.72;5050388;28;19929;-82
2023/03/01 01:43:16;;;;;;;;;;;;;;;-1.81;72.82;100117.13;5042871;28;19920;-82
2023/03/01 01:45:41;;;;;;;;;;;;;;;-2.27;73.77;100112.56;5061433;28;19931;-83
2023/03/01 01:48:10;;;;;;;;;;;;;;;-2.24;73.95;100110.66;5048983;28;20358;-83
2023/03/01 01:50:39;;;;;;;;;;;;;;;-2.23;73.61;100107.91;5047890;28;20392;-83
2023/03/01 01:53:10;;;;;;;;;;;;;;;-2.52;73.58;100104.44;5049668;28;19970;-83
2023/03/01 01:55:37;;;;;;;;;;;;;;;-1.88;75.55;100105.56;5050464;28;19921;-83
2023/03/01 01:58:04;;;;;;;;;;;;;;;-1.02;72.75;100094.06;5050597;28;19970;-83
2023/03/01 02:00:30;;;;;;;;;;;;;;;-0.50;70.49;100103.88;5052305;28;20035;-83
2023/03/01 02:02:57;;;;;;;;;;;;;;;-0.36;70.45;100094.69;5054430;28;20040;-83
2023/03/01 02:05:25;;;;;;;;;;;;;;;-0.41;69.28;100092.50;5050868;28;19921;-82
2023/03/01 02:07:51;;;;;;;;;;;;;;;-0.35;69.12;100091.09;5055622;28;19925;-83
2023/03/01 02:10:17;;;;;;;;;;;;;;;-0.37;69.72;100080.75;5068352;28;19923;-83
2023/03/01 02:12:42;;;;;;;;;;;;;;;-0.31;69.23;100076.72;5038208;28;19928;-83
2023/03/01 02:15:08;;;;;;;;;;;;;;;-0.20;69.26;100085.16;5046396;28;20380;-83
2023/03/01 02:17:33;;;;;;;;;;;;;;;-0.21;68.91;100069.59;5046831;28;19916;-83
2023/03/01 02:20:15;;;;;;;;;;;;;;;-0.23;69.14;100076.78;5050353;28;19929;-83
2023/03/01 02:22:43;;;;;;;;;;;;;;;-0.23;69.03;100075.00;5066437;28;19917;-84
2023/03/01 02:25:27;;;;;;;;;;;;;;;-0.31;68.82;100060.97;5054812;28;19925;-84
2023/03/01 02:28:07;;;;;;;;;;;;;;;-0.28;68.36;100072.00;5052847;28;20009;-84
2023/03/01 02:30:33;;;;;;;;;;;;;;;-0.16;68.75;100060.31;5051369;28;19924;-82
2023/03/01 02:33:02;;;;;;;;;;;;;;;-0.26;68.80;100075.28;5050753;28;20460;-83
2023/03/01 02:35:30;;;;;;;;;;;;;;;-0.24;68.95;100070.72;5059926;28;19928;-83
2023/03/01 02:37:56;;;;;;;;;;;;;;;-0.26;68.47;100064.78;5047504;28;20009;-82
2023/03/01 02:40:22;;;;;;;;;;;;;;;-0.32;68.98;100060.16;5052810;28;19977;-84
2023/03/01 02:42:53;;;;;;;;;;;;;;;-0.37;68.48;100056.34;5050674;28;19940;-83
2023/03/01 02:45:19;;;;;;;;;;;;;;;-0.30;68.74;100052.94;5049134;28;19917;-83
2023/03/01 02:47:44;;;;;;;;;;;;;;;-0.37;68.71;100054.53;5048546;28;19996;-83
2023/03/01 02:50:36;;;;;;;;;;;;;;;-0.32;68.60;100049.66;5046931;28;19967;-83
2023/03/01 02:53:04;;;;;;;;;;;;;;;-0.35;68.84;100047.31;5040224;28;19968;-82
2023/03/01 02:55:29;;;;;;;;;;;;;;;-0.54;69.41;100055.34;5048497;28;19924;-83
2023/03/01 02:57:55;;;;;;;;;;;;;;;-0.45;69.26;100053.63;5031505;28;19929;-83
2023/03/01 03:00:23;;;;;;;;;;;;;;;-0.40;68.73;100051.38;5032726;28;19943;-84
2023/03/01 03:02:52;;;;;;;;;;;;;;;-0.41;68.37;100054.97;5035308;28;20376;-84
2023/03/01 03:05:19;;;;;;;;;;;;;;;-0.43;68.96;100055.13;5051846;28;20386;-83
2023/03/01 03:07:45;;;;;;;;;;;;;;;-0.94;68.78;100053.06;5053774;28;19921;-83
2023/03/01 03:10:23;;;;;;;;;;;;;;;-0.56;69.52;100062.53;5049521;28;19917;-83
2023/03/01 03:12:53;;;;;;;;;;;;;;;-0.50;68.93;100061.94;5047599;28;20007;-83
2023/03/01 03:15:20;;;;;;;;;;;;;;;-0.46;68.54;100058.03;5046949;28;19927;-83
2023/03/01 03:17:45;;;;;;;;;;;;;;;-0.50;68.73;100051.44;5045014;28;19917;-83
2023/03/01 03:20:11;;;;;;;;;;;;;;;-0.51;68.93;100048.97;5025672;28;19936;-83
2023/03/01 03:22:39;;;;;;;;;;;;;;;-0.52;68.52;100047.31;5045126;28;19920;-83
2023/03/01 03:25:10;;;;;;;;;;;;;;;-0.57;69.04;100050.41;5054713;28;20303;-83
2023/03/01 03:27:35;;;;;;;;;;;;;;;-0.59;68.66;100041.84;5046569;28;19920;-83
2023/03/01 03:30:00;;;;;;;;;;;;;;;-0.59;68.50;100044.47;5041115;28;20706;-82
2023/03/01 03:32:25;;;;;;;;;;;;;;;-0.53;69.00;100040.44;5041021;28;19932;-82
2023/03/01 03:34:51;;;;;;;;;;;;;;;-0.57;68.37;100029.44;5039768;28;19925;-82
2023/03/01 03:40:00;;;;;;;;;;;;;;;-1.62;69.15;100024.69;5043341;28;20010;-83
2023/03/01 03:42:25;;;;;;;;;;;;;;;-1.77;71.52;100026.91;5042067;28;19920;-83
2023/03/01 03:44:51;;;;;;;;;;;;;;;-1.01;69.94;100030.25;5061595;28;20086;-83
2023/03/01 03:47:16;;;;;;;;;;;;;;;-0.95;70.09;100027.88;5051019;28;19924;-82
2023/03/01 03:49:41;;;;;;;;;;;;;;;-0.66;69.15;100022.44;5048917;28;19932;-82
2023/03/01 03:52:13;;;;;;;;;;;;;;;-0.64;69.27;100020.50;5049985;28;19921;-81
2023/03/01 03:54:38;;;;;;;;;;;;;;;-1.21;69.15;100024.28;5067951;28;19970;-82
2023/03/01 03:57:04;;;;;;;;;;;;;;;-0.84;69.08;100019.81;5047321;28;20316;-83
2023/03/01 03:59:29;;;;;;;;;;;;;;;-0.83;68.93;100024.06;5047697;28;19928;-83
2023/03/01 04:01:54;;;;;;;;;;;;;;;-1.04;68.71;100023.50;5051770;28;20346;-83
2023/03/01 04:04:19;;;;;;;;;;;;;;;-0.80;68.97;100017.69;5055905;28;20401;-83
2023/03/01 04:06:44;;;;;;;;;;;;;;;-0.69;69.40;100024.53;5066781;28;20375;-84
2023/03/01 04:09:10;;;;;;;;;;;;;;;-0.64;68.77;100017.06;5052413;28;20395;-83
2023/03/01 04:11:35;;;;;;;;;;;;;;;-0.75;68.79;100020.72;5037501;28;20385;-83
2023/03/01 04:14:00;;;;;;;;;;;;;;;-2.07;71.06;100029.72;5052301;28;19921;-83
2023/03/01 04:16:25;;;;;;;;;;;;;;;-1.46;70.58;100024.09;5067598;28;19933;-83
2023/03/01 04:18:52;;;;;;;;;;;;;;;-2.37;71.30;100029.88;5053862;28;19932;-83
2023/03/01 04:21:17;;;;;;;;;;;;;;;-2.66;72.04;100036.84;5032820;28;19927;-83
2023/03/01 04:23:43;;;;;;;;;;;;;;;-3.27;73.22;100047.44;5065344;28;20431;-82
2023/03/01 04:26:08;;;;;;;;;;;;;;;-3.27;74.54;100047.44;5055373;28;19971;-82
2023/03/01 04:28:39;;;;;;;;;;;;;;;-3.00;74.86;100051.22;5045843;28;19920;-82
2023/03/01 04:31:17;;;;;;;;;;;;;;;-1.88;74.39;100045.38;5048355;28;19939;-82
2023/03/01 04:33:46;;;;;;;;;;;;;;;-1.87;71.81;100049.66;5048942;28;19967;-83
2023/03/01 04:36:12;;;;;;;;;;;;;;;-1.25;71.63;100043.88;5049694;28;19921;-83
2023/03/01 04:38:38;;;;;;;;;;;;;;;-1.11;70.26;100040.75;5051492;28;19943;-83
2023/03/01 04:41:04;;;;;;;;;;;;;;;-1.16;70.60;100036.94;5062202;28;19920;-83
2023/03/01 04:43:29;;;;;;;;;;;;;;;-1.28;69.38;100035.44;5049976;28;19920;-83
2023/03/01 04:45:59;;;;;;;;;;;;;;;-0.98;69.52;100024.69;5060256;28;19924;-83
2023/03/01 04:48:24;;;;;;;;;;;;;;;-1.14;69.98;100021.91;5042558;28;19921;-83
2023/03/01 04:50:50;;;;;;;;;;;;;;;-1.10;69.68;100025.88;5048335;28;20296;-83
2023/03/01 04:53:15;;;;;;;;;;;;;;;-1.18;70.37;100025.78;5051607;28;19924;-83
2023/03/01 04:55:40;;;;;;;;;;;;;;;-1.73;70.50;100020.47;5049015;28;19928;-83
2023/03/01 04:58:05;;;;;;;;;;;;;;;-1.34;70.90;100020.31;5046337;28;19925;-82
2023/03/01 05:00:31;;;;;;;;;;;;;;;-1.02;69.90;100021.56;5062355;28;19933;-82
2023/03/01 05:02:57;;;;;;;;;;;;;;;-1.91;70.49;100024.75;5046394;28;19921;-83
2023/03/01 05:05:35;;;;;;;;;;;;;;;-2.08;71.15;100009.78;5050615;28;19924;-83
2023/03/01 05:08:03;;;;;;;;;;;;;;;-2.30;72.49;100017.91;5049910;28;19964;-83
2023/03/01 05:10:29;;;;;;;;;;;;;;;-2.24;72.48;100014.75;5046978;28;19999;-83
2023/03/01 05:12:57;;;;;;;;;;;;;;;-2.54;71.85;100033.19;5049447;28;20015;-83
2023/03/01 05:15:25;;;;;;;;;;;;;;;-2.56;73.45;100033.31;5051941;28;19929;-82
2023/03/01 05:17:51;;;;;;;;;;;;;;;-2.41;72.17;100024.13;5050326;28;19916;-82
2023/03/01 05:20:16;;;;;;;;;;;;;;;-2.03;73.02;100027.69;5052098;28;20036;-81
2023/03/01 05:22:41;;;;;;;;;;;;;;;-1.31;70.39;100027.91;5068083;28;20284;-81
2023/03/01 05:25:07;;;;;;;;;;;;;;;-2.12;70.58;100018.88;5053611;28;19929;-82
2023/03/01 05:27:32;;;;;;;;;;;;;;;-1.77;70.33;100021.69;5056780;28;19935;-82
2023/03/01 05:29:58;;;;;;;;;;;;;;;-1.58;71.07;100016.44;5053930;28;20001;-83
2023/03/01 05:32:23;;;;;;;;;;;;;;;-1.15;69.79;100015.00;5053754;28;20303;-83
2023/03/01 05:34:48;;;;;;;;;;;;;;;-1.04;69.80;100015.63;5055691;28;20348;-83
2023/03/01 05:37:13;;;;;;;;;;;;;;;-0.99;69.54;100020.44;5050906;28;19943;-83
2023/03/01 05:39:39;;;;;;;;;;;;;;;-1.01;68.82;100014.53;5050495;28;20403;-83
2023/03/01 05:42:05;;;;;;;;;;;;;;;-1.02;68.88;100016.31;5053165;28;21867;-83
2023/03/01 05:44:30;;;;;;;;;;;;;;;-1.02;68.79;100018.09;5064951;28;19913;-84
2023/03/01 05:46:56;;;;;;;;;;;;;;;-1.18;68.67;100015.31;5050326;28;19925;-82
2023/03/01 05:49:25;;;;;;;;;;;;;;;-1.25;69.23;100016.84;5048834;28;19928;-83
2023/03/01 05:51:51;;;;;;;;;;;;;;;-1.06;68.62;100012.34;5071364;28;19942;-82
2023/03/01 05:54:17;;;;;;;;;;;;;;;-1.07;68.44;100012.50;5049137;28;19921;-83
2023/03/01 05:56:43;;;;;;;;;;;;;;;-1.01;68.52;100014.53;5051628;28;19916;-83
2023/03/01 05:59:09;;;;;;;;;;;;;;;-1.05;68.16;100008.72;5050591;28;20394;-84
2023/03/01 06:01:34;;;;;;;;;;;;;;;-0.97;67.98;100003.59;5052563;28;19972;-83
2023/03/01 06:04:00;;;;;;;;;;;;;;;-1.08;68.46;100009.03;5049836;28;19924;-83
2023/03/01 06:06:25;;;;;;;;;;;;;;;-1.19;68.40;99996.13;5070026;28;19964;-82
2023/03/01 06:08:51;;;;;;;;;;;;;;;-1.34;69.08;100007.22;5080374;28;19996;-82
2023/03/01 06:11:16;;;;;;;;;;;;;;;-1.12;68.40;100005.06;5063875;28;19916;-82
2023/03/01 06:13:42;;;;;;;;;;;;;;;-1.14;68.91;100009.63;5056175;28;19924;-83
2023/03/01 06:16:08;;;;;;;;;;;;;;;-1.24;68.80;100014.06;5049262;28;19924;-83
2023/03/01 06:18:33;;;;;;;;;;;;;;;-2.05;70.17;100014.72;5053667;28;19974;-85
2023/03/01 06:20:59;;;;;;;;;;;;;;;-1.95;70.33;100017.34;5055267;28;20382;-82
2023/03/01 06:23:24;;;;;;;;;;;;;;;-1.33;69.21;100014.94;5053119;28;19991;-83
2023/03/01 06:25:50;;;;;;;;;;;;;;;-1.22;69.28;100027.03;5063231;28;19925;-82
2023/03/01 06:28:16;;;;;;;;;;;;;;;-1.21;68.64;100019.03;5057591;28;21463;-81
2023/03/01 06:30:41;;;;;;;;;;;;;;;-1.23;68.37;100014.91;5063310;28;19975;-82
2023/03/01 06:33:06;;;;;;;;;;;;;;;-1.87;70.56;100013.03;5058532;28;20497;-83
2023/03/01 06:35:31;;;;;;;;;;;;;;;-2.48;70.54;100017.78;5057499;28;20407;-82
2023/03/01 06:37:57;;;;;;;;;;;;;;;-3.20;72.45;100009.41;5050853;28;19920;-83
2023/03/01 06:40:23;;;;;;;;;;;;;;;-2.59;73.35;100017.06;5070591;28;19920;-82
2023/03/01 06:42:49;;;;;;;;;;;;;;;-1.65;70.84;100009.28;5056972;28;19925;-82
2023/03/01 06:45:15;;;;;;;;;;;;;;;-1.37;70.50;99997.03;5052112;28;20026;-82
2023/03/01 06:47:40;;;;;;;;;;;;;;;-1.27;69.16;100009.16;5044943;28;19920;-83
2023/03/01 06:50:06;;;;;;;;;;;;;;;-1.09;68.50;100001.34;5047714;28;19940;-83
2023/03/01 06:52:33;;;;;;;;;;;;;;;-2.35;70.82;100004.44;5047056;28;19920;-82
2023/03/01 06:54:59;;;;;;;;;;;;;;;-2.45;71.62;100014.91;5047474;28;19925;-81
2023/03/01 06:57:24;;;;;;;;;;;;;;;-3.02;73.32;100009.59;5041752;28;19943;-81
2023/03/01 06:59:49;;;;;;;;;;;;;;;-2.87;74.34;99997.78;5046002;28;19973;-83
2023/03/01 07:02:15;;;;;;;;;;;;;;;-2.30;74.00;100004.84;5035630;28;19955;-83
2023/03/01 07:04:40;;;;;;;;;;;;;;;-2.81;73.82;100018.16;5042002;28;20000;-83
2023/03/01 07:07:05;;;;;;;;;;;;;;;-2.56;74.56;100017.66;5058702;28;19925;-82
2023/03/01 07:09:31;;;;;;;;;;;;;;;-3.07;75.08;100007.38;5048327;28;19924;-82
2023/03/01 07:11:56;;;;;;;;;;;;;;;-3.19;75.92;100016.25;5055855;28;19917;-83
2023/03/01 07:14:24;;;;;;;;;;;;;;;-3.41;76.36;100015.66;5053589;28;20297;-83
2023/03/01 07:16:49;;;;;;;;;;;;;;;-3.48;78.17;100017.13;5048351;28;20530;-83
2023/03/01 07:19:14;;;;;;;;;;;;;;;-2.71;77.19;100020.78;5050720;28;19967;-83
2023/03/01 07:21:40;;;;;;;;;;;;;;;-2.77;75.90;100008.25;5048718;28;19971;-83
2023/03/01 07:24:06;;;;;;;;;;;;;;;-3.64;77.81;100014.97;5076359;28;20118;-81
2023/03/01 07:26:31;;;;;;;;;;;;;;;-3.58;79.26;100011.84;5055974;28;19924;-82
2023/03/01 07:28:58;;;;;;;;;;;;;;;-3.15;78.95;100014.22;5061606;28;19921;-82
2023/03/01 07:31:23;;;;;;;;;;;;;;;-3.68;80.30;100010.16;5067657;28;19905;-83
2023/03/01 07:33:49;;;;;;;;;;;;;;;-3.74;80.35;100000.25;5074176;28;20194;-83
2023/03/01 07:36:14;;;;;;;;;;;;;;;-3.86;81.02;100004.69;5055551;28;19955;-83
2023/03/01 07:38:39;;;;;;;;;;;;;;;-3.82;81.70;99998.25;5068778;28;19936;-83
2023/03/01 07:41:05;;;;;;;;;;;;;;;-4.25;82.54;100005.41;5055359;28;19921;-83
2023/03/01 07:43:31;;;;;;;;;;;;;;;-4.03;82.56;100005.28;5041437;28;20385;-83
2023/03/01 07:46:00;;;;;;;;;;;;;;;-3.96;82.42;100004.66;5064630;28;19948;-83
2023/03/01 07:48:25;;;;;;;;;;;;;;;-4.03;82.59;100000.91;5063006;28;20355;-82
2023/03/01 07:50:51;;;;;;;;;;;;;;;-3.91;82.95;99999.88;5046346;28;19929;-82
2023/03/01 07:53:16;;;;;;;;;;;;;;;-3.52;82.87;100003.53;5070030;28;19924;-83
2023/03/01 07:55:41;;;;;;;;;;;;;;;-3.90;82.64;99998.94;5053106;28;19960;-83
2023/03/01 07:58:06;;;;;;;;;;;;;;;-3.72;82.70;99996.56;5054235;28;19952;-82
2023/03/01 08:00:32;;;;;;;;;;;;;;;-2.72;80.96;99998.22;5051244;28;20370;-83
2023/03/01 08:03:00;;;;;;;;;;;;;;;-3.19;81.56;100003.19;5047610;28;19917;-84
2023/03/01 08:05:26;;;;;;;;;;;;;;;-2.96;81.57;100005.59;5051822;28;20019;-83
2023/03/01 08:07:51;;;;;;;;;;;;;;;-3.51;81.36;100002.53;5054267;28;20348;-83
2023/03/01 08:10:16;;;;;;;;;;;;;;;-3.61;83.29;99999.09;5053143;28;19921;-83
2023/03/01 08:12:42;;;;;;;;;;;;;;;-3.27;82.21;100003.06;5029250;28;19939;-83
2023/03/01 08:15:07;;;;;;;;;;;;;;;-3.09;82.17;99996.25;5059167;28;19916;-83
2023/03/01 08:17:33;;;;;;;;;;;;;;;-2.68;81.73;99989.16;5048128;28;20295;-82
2023/03/01 08:19:58;;;;;;;;;;;;;;;-1.83;77.51;99980.41;5046587;28;20336;-83
2023/03/01 08:22:23;;;;;;;;;;;;;;;-1.49;76.53;99977.25;5062432;28;19929;-84
2023/03/01 08:24:49;;;;;;;;;;;;;;;-1.72;77.26;99974.16;5042158;28;19987;-83
2023/03/01 08:27:15;;;;;;;;;;;;;;;-1.36;75.17;99970.72;5077671;28;19928;-82
2023/03/01 08:29:40;;;;;;;;;;;;;;;-1.89;76.45;99973.13;5062573;28;20346;-83
2023/03/01 08:32:05;;;;;;;;;;;;;;;-1.36;76.27;99977.75;5059625;28;19963;-83
2023/03/01 08:34:31;;;;;;;;;;;;;;;-0.85;73.85;99983.25;5055588;28;20388;-83
2023/03/01 08:36:57;;;;;;;;;;;;;;;-1.31;74.40;99978.16;5058681;28;19928;-83
2023/03/01 08:39:22;;;;;;;;;;;;;;;-1.43;75.41;99987.97;5072190;28;19921;-82
2023/03/01 08:41:47;;;;;;;;;;;;;;;-1.76;77.09;99985.88;5058613;28;19974;-83
2023/03/01 08:44:14;;;;;;;;;;;;;;;-1.17;74.64;99977.66;5071070;28;20126;-82
2023/03/01 08:46:43;;;;;;;;;;;;;;;-1.36;75.56;99977.75;5050581;28;19927;-81
2023/03/01 08:49:13;;;;;;;;;;;;;;;-1.09;75.87;99975.16;5062135;28;19920;-82
2023/03/01 08:51:38;;;;;;;;;;;;;;;-0.78;74.14;99963.34;5056611;28;19925;-82
2023/03/01 08:54:04;;;;;;;;;;;;;;;-0.67;72.98;99970.16;5038191;28;20303;-83
2023/03/01 08:56:29;;;;;;;;;;;;;;;-1.47;75.53;99973.53;5065465;28;19943;-83
2023/03/01 08:58:55;;;;;;;;;;;;;;;-1.51;76.49;99977.41;5053109;28;19963;-83
2023/03/01 09:01:20;;;;;;;;;;;;;;;-1.10;75.13;99968.25;5050846;28;19981;-83
2023/03/01 09:03:45;;;;;;;;;;;;;;;-1.78;76.22;99967.72;5031895;28;19925;-83
2023/03/01 09:06:11;;;;;;;;;;;;;;;-2.04;78.18;99964.06;5059144;28;19980;-83
2023/03/01 09:08:43;;;;;;;;;;;;;;;-1.68;78.21;99957.19;5073979;28;19921;-82
2023/03/01 09:11:09;;;;;;;;;;;;;;;-1.25;77.01;99957.44;5060784;28;19924;-82
2023/03/01 09:13:34;;;;;;;;;;;;;;;-1.54;76.77;99961.97;5055617;28;19952;-81
2023/03/01 09:16:00;;;;;;;;;;;;;;;-1.76;78.01;99954.50;5057147;28;20396;-82
2023/03/01 09:18:26;;;;;;;;;;;;;;;-1.70;76.01;99962.59;5055125;28;19979;-82
2023/03/01 09:20:51;;;;;;;;;;;;;;;-1.81;76.59;99954.91;5068809;28;19964;-82
2023/03/01 09:23:16;;;;;;;;;;;;;;;-1.77;75.63;99956.28;5029605;28;19950;-82
2023/03/01 09:25:41;;;;;;;;;;;;;;;-1.60;75.02;99958.16;5058215;28;19920;-82
2023/03/01 09:28:07;;;;;;;;;;;;;;;-1.16;75.74;99955.75;5061891;28;19929;-82
2023/03/01 09:30:32;;;;;;;;;;;;;;;-1.53;74.67;99951.38;5053677;28;20011;-82
2023/03/01 09:32:58;;;;;;;;;;;;;;;-1.68;74.99;99947.56;5064677;28;19917;-82
2023/03/01 09:35:23;;;;;;;;;;;;;;;-1.56;75.23;99950.84;5055685;28;19944;-82
2023/03/01 09:37:49;;;;;;;;;;;;;;;-1.35;74.41;99953.22;5034193;28;19929;-81
2023/03/01 09:40:17;;;;;;;;;;;;;;;-1.24;74.21;99955.63;5061810;28;19932;-82
2023/03/01 09:42:48;;;;;;;;;;;;;;;-1.28;73.69;99949.88;5058627;28;20357;-83
2023/03/01 09:45:34;;;;;;;;;;;;;;;-0.83;73.77;99947.25;5055275;28;20300;-81
2023/03/01 09:48:00;;;;;;;;;;;;;;;-0.95;73.97;99951.06;5068701;28;19917;-83
2023/03/01 09:50:27;;;;;;;;;;;;;;;-0.95;74.00;99951.06;5052740;28;20044;-83
2023/03/01 09:52:53;;;;;;;;;;;;;;;-1.36;72.87;99948.97;5053333;28;19921;-83
2023/03/01 09:55:25;;;;;;;;;;;;;;;-1.18;73.97;99950.63;5058048;28;19921;-82
2023/03/01 09:57:55;;;;;;;;;;;;;;;-1.17;73.20;99947.06;5053498;28;19917;-83
2023/03/01 10:00:23;;;;;;;;;;;;;;;-1.00;73.53;99955.91;5050084;28;20458;-82
2023/03/01 10:02:56;;;;;;;;;;;;;;;-0.85;73.34;99954.41;5053796;28;20001;-83
2023/03/01 10:05:21;;;;;;;;;;;;;;;-0.69;73.38;99948.50;5051990;28;19925;-82
2023/03/01 10:07:49;;;;;;;;;;;;;;;-0.83;72.75;99945.44;5048120;28;19916;-82
2023/03/01 10:10:33;;;;;;;;;;;;;;;-0.48;74.42;99941.97;5073215;28;19916;-82
2023/03/01 10:13:01;;;;;;;;;;;;;;;-0.52;71.26;99938.03;5050252;28;19917;-83
2023/03/01 10:15:39;;;;;;;;;;;;;;;-0.35;72.33;99939.00;5054564;28;19925;-82
2023/03/01 10:18:09;;;;;;;;;;;;;;;-0.49;70.43;99935.13;5072572;28;20015;-83
2023/03/01 10:20:38;;;;;;;;;;;;;;;-0.46;71.50;99924.31;5066013;28;20368;-83
2023/03/01 10:23:04;;;;;;;;;;;;;;;-0.38;70.58;99916.53;5058197;28;19924;-82
2023/03/01 10:25:29;;;;;;;;;;;;;;;-0.21;70.43;99920.06;5065403;28;19923;-83
2023/03/01 10:27:59;;;;;;;;;;;;;;;0.08;73.20;99919.75;5071044;28;20372;-83
2023/03/01 10:30:38;;;;;;;;;;;;;;;-0.17;69.17;99917.00;5060656;28;19939;-82
2023/03/01 10:33:08;;;;;;;;;;;;;;;-0.03;71.01;99910.38;5067923;28;20002;-83
2023/03/01 10:35:34;;;;;;;;;;;;;;;0.15;70.55;99907.69;5058048;28;19931;-83
2023/03/01 10:38:06;;;;;;;;;;;;;;;0.10;70.98;99905.50;5069073;28;20011;-83
2023/03/01 10:40:33;;;;;;;;;;;;;;;0.29;71.00;99900.03;5086806;28;20011;-83
2023/03/01 10:42:59;;;;;;;;;;;;;;;-0.03;67.42;99905.94;5041846;28;20388;-82
2023/03/01 10:45:25;;;;;;;;;;;;;;;0.10;68.77;99908.13;5054088;28;19917;-81
2023/03/01 10:48:03;;;;;;;;;;;;;;;0.12;67.79;99897.47;5060064;28;19923;-82
2023/03/01 10:50:28;;;;;;;;;;;;;;;0.21;68.03;99892.13;5057572;28;20268;-83
2023/03/01 10:53:01;;;;;;;;;;;;;;;0.20;66.76;99894.91;5050037;28;19967;-83
2023/03/01 10:55:30;;;;;;;;;;;;;;;0.23;66.93;99903.28;5049268;28;19928;-82
2023/03/01 10:58:14;;;;;;;;;;;;;;;0.30;66.52;99893.81;5050007;28;19921;-83
2023/03/01 11:00:47;;;;;;;;;;;;;;;0.50;69.59;99889.13;5047106;28;20008;-83
2023/03/01 11:03:13;;;;;;;;;;;;;;;0.50;67.90;99881.25;5044317;28;19921;-83
2023/03/01 11:05:53;;;;;;;;;;;;;;;0.51;66.68;99888.97;5051732;28;20292;-83
2023/03/01 11:08:32;;;;;;;;;;;;;;;0.61;69.29;99881.75;5052569;28;20011;-83
2023/03/01 11:11:24;;;;;;;;;;;;;;;0.50;66.58;99881.25;5046263;28;19970;-83
2023/03/01 11:13:54;;;;;;;;;;;;;;;0.51;66.04;99873.22;5045775;28;20394;-83
2023/03/01 11:16:31;;;;;;;;;;;;;;;0.53;65.71;99879.13;5044813;28;19923;-83
2023/03/01 11:19:14;;;;;;;;;;;;;;;0.64;65.39;99875.38;5049142;28;19917;-83
2023/03/01 11:21:58;;;;;;;;;;;;;;;0.69;65.66;99875.72;5054411;28;20019;-83
2023/03/01 11:24:30;;;;;;;;;;;;;;;0.64;64.48;99872.75;5054535;28;20288;-83
2023/03/01 11:26:56;;;;;;;;;;;;;;;0.78;64.85;99869.50;5070400;28;19917;-83
2023/03/01 11:29:42;;;;;;;;;;;;;;;0.80;65.72;99878.06;5052408;28;19928;-84
2023/03/01 11:32:10;;;;;;;;;;;;;;;0.85;64.26;99878.41;5052836;28;19925;-83
2023/03/01 11:34:39;;;;;;;;;;;;;;;0.88;64.40;99864.09;5070318;28;19916;-83
2023/03/01 11:37:09;;;;;;;;;;;;;;;0.99;66.86;99863.78;5053837;28;20284;-83
2023/03/01 11:39:50;;;;;;;;;;;;;;;1.06;65.77;99865.63;5052766;28;19925;-83
2023/03/01 11:42:21;;;;;;;;;;;;;;;1.25;68.05;99867.09;5053170;28;19920;-83
2023/03/01 11:44:48;;;;;;;;;;;;;;;1.24;67.96;99857.56;5045892;28;19924;-83
2023/03/01 11:47:16;;;;;;;;;;;;;;;1.21;63.46;99858.72;5061704;28;20280;-84
2023/03/01 11:50:07;;;;;;;;;;;;;;;1.24;65.89;99857.56;5046106;28;19920;-84
2023/03/01 11:52:41;;;;;;;;;;;;;;;1.30;62.40;99849.03;5065554;28;20388;-84
2023/03/01 11:55:12;;;;;;;;;;;;;;;1.24;62.73;99840.00;5066382;28;19925;-84
2023/03/01 11:57:54;;;;;;;;;;;;;;;1.36;60.09;99845.72;5064701;28;19959;-84
2023/03/01 12:00:38;;;;;;;;;;;;;;;1.41;59.47;99839.00;5048421;28;19947;-85
2023/03/01 12:03:22;;;;;;;;;;;;;;;1.40;60.76;99834.72;5049209;28;20304;-84
2023/03/01 12:06:05;;;;;;;;;;;;;;;1.50;61.40;99835.38;5055049;28;19920;-84
2023/03/01 12:08:35;;;;;;;;;;;;;;;1.66;65.39;99828.44;5068008;28;19959;-82
2023/03/01 12:11:15;;;;;;;;;;;;;;;1.73;59.47;99829.41;5053159;28;19923;-84
2023/03/01 12:13:43;;;;;;;;;;;;;;;1.68;59.41;99819.41;5049487;28;19924;-83
2023/03/01 12:16:14;;;;;;;;;;;;;;;1.73;58.67;99824.13;5071229;28;19924;-83
2023/03/01 12:18:39;;;;;;;;;;;;;;;1.71;59.21;99831.38;5057223;28;19928;-83
2023/03/01 12:21:04;;;;;;;;;;;;;;;1.76;60.51;99826.44;5055232;28;20384;-84
2023/03/01 12:23:30;;;;;;;;;;;;;;;1.91;59.26;99824.75;5073126;28;19921;-84
2023/03/01 12:26:02;;;;;;;;;;;;;;;1.88;57.74;99819.84;5070117;28;19925;-84
2023/03/01 12:28:33;;;;;;;;;;;;;;;1.93;58.91;99825.41;5070660;28;19969;-83
2023/03/01 12:31:14;;;;;;;;;;;;;;;2.04;59.13;99823.22;5049664;28;19923;-84
2023/03/01 12:33:45;;;;;;;;;;;;;;;2.03;58.88;99820.78;5062738;28;20291;-83
2023/03/01 12:36:10;;;;;;;;;;;;;;;2.06;59.23;99812.53;5066778;28;19939;-84
2023/03/01 12:38:45;;;;;;;;;;;;;;;2.10;59.83;99813.81;5072950;28;19952;-84
2023/03/01 12:41:13;;;;;;;;;;;;;;;2.04;59.48;99803.97;5055640;28;20404;-83
2023/03/01 12:44:00;;;;;;;;;;;;;;;2.13;61.43;99801.16;5056931;28;19970;-83
2023/03/01 12:46:52;;;;;;;;;;;;;;;2.22;60.99;99804.56;5052745;28;19952;-84
2023/03/01 12:49:30;;;;;;;;;;;;;;;2.20;60.17;99796.84;5055623;28;19917;-84